Details From CYZH - Slave Lake
To CYYD - Smithers
Flight Number -
Tags Generated
Created
Modified
Stats Distance 427 nm / 791 km
Max Altitude 0 ft / 0 m
Waypoints 3
Social Downloads 0
Likes 0
Share VATSIM

Download

Looking for another format? Having issues loading an existing format? Contact us
Advertisement - Login to hide

Notes

Generated

Route

CYZH M9 CYYD

ID Type Via Altitude Latitude Longitude Leg Dist Tot Dist Heading (true) Name
O CYZH APT - 0 ft / 0 m 55.29648˚ -114.79041˚ - 0 nm - -
M9 NDB - 0 ft / 0 m 54.82472˚ -127.18278˚ 426 nm 426 nm 271° / 261° KATHLYN NDB
O CYYD APT - 0 ft / 0 m 54.83157˚ -127.18444˚ 0 nm 427 nm 352° / 352° -

Altitude Profile

Advertisement - Login to hide

Weather


0- 5 10 15 20 25 30 35+ Temperature / ° C

Clouds and Precipitation
Forecast for 2018-05-25 12:00 UTC. Updated 23 minutes ago

Ground ~20,000 ft ~40,000 ft Winds

CYZH

Details ICAO CYZH (YZH)
Name SLAVE LAKE
Region Canada
Timezone America/Edmonton (UTC-6.0)
Stats Elevation 1,912 ft / 583 m (AMSL)
Location 55.293303° -114.778310°
Runways 1
Magnetic Variation 15.209° E

METAR

CYZH 251100Z AUTO VRB02KT 9SM FEW180 10/10 A2974 RMK SLP075 DENSITY ALT 2000FT

Decode

TAF

TAF CYZH 250638Z 2507/2519 27008KT P6SM BKN100 FM251000 27008KT P6SM SCT200 FM251600 29012KT P6SM SCT160 RMK FCST BASED ON AUTO OBS. NXT FCST BY 251300Z

Decode

Departure Runways

ID Width Length Bearing (true) Bearing (mag) Surface Threshold Offset Overrun Length
10 100 ft / 30 m 5,535 ft / 1,687 m 114.74° 99.53° Asphalt 0 ft / 0 m 0 ft / 0 m
28 100 ft / 30 m 5,535 ft / 1,687 m 294.76° 279.55° Asphalt 557 ft / 170 m 0 ft / 0 m

CYYD

Details ICAO CYYD (YYD)
Name SMITHERS
Region Canada
Timezone America/Vancouver (UTC-7.0)
Stats Elevation 1,712 ft / 522 m (AMSL)
Location 54.824812° -127.182587°
Runways 1
Magnetic Variation 18.148° E

METAR

CYYD 251100Z AUTO VRB02KT 9SM BKN150 05/M00 A2994 RMK SLP146

Decode

TAF

Not found

Destination Runways

ID Width Length Bearing (true) Bearing (mag) Surface Threshold Offset Overrun Length
15 150 ft / 46 m 4,992 ft / 1,521 m 171.00° 152.85° Asphalt 0 ft / 0 m 0 ft / 0 m
33 150 ft / 46 m 4,992 ft / 1,521 m 351.01° 332.86° Asphalt 0 ft / 0 m 0 ft / 0 m